createdAt,value
2019-01-17T00:00:31.695Z,16.39
2019-01-17T00:01:32.320Z,16.41
2019-01-17T00:02:32.895Z,16.35
2019-01-17T00:03:33.468Z,16.31
2019-01-17T00:04:34.041Z,16.36
2019-01-17T00:05:34.614Z,16.36
2019-01-17T00:06:35.190Z,16.32
2019-01-17T00:07:35.812Z,16.16
2019-01-17T00:08:36.387Z,16.26
2019-01-17T00:09:36.964Z,16.17
2019-01-17T00:10:37.540Z,16.24
2019-01-17T00:11:38.158Z,16.26
2019-01-17T00:12:38.731Z,16.24
2019-01-17T00:13:39.307Z,16.21
2019-01-17T00:14:39.878Z,16.24
2019-01-17T00:15:40.453Z,16.08
2019-01-17T00:16:41.176Z,16.23
2019-01-17T00:17:41.748Z,16.17
2019-01-17T00:18:42.321Z,16.15
2019-01-17T00:19:42.894Z,16.13
2019-01-17T00:20:43.467Z,16.10
2019-01-17T00:21:44.039Z,16.05
2019-01-17T00:22:44.661Z,16.08
2019-01-17T00:23:45.236Z,15.98
2019-01-17T00:24:45.808Z,16.05
2019-01-17T00:25:46.382Z,16.00
2019-01-17T00:26:46.958Z,15.95
2019-01-17T00:27:47.533Z,16.02
2019-01-17T00:28:48.103Z,15.98
2019-01-17T00:29:48.678Z,15.95
2019-01-17T00:30:49.301Z,15.94
2019-01-17T00:31:49.924Z,15.95
2019-01-17T00:32:50.498Z,15.92
2019-01-17T00:33:51.074Z,15.86
2019-01-17T00:34:51.646Z,15.92
2019-01-17T00:35:52.372Z,15.88
2019-01-17T00:36:52.946Z,15.80
2019-01-17T00:37:53.521Z,15.80
2019-01-17T00:38:54.092Z,15.84
2019-01-17T00:39:54.668Z,15.83
2019-01-17T00:40:55.241Z,15.83
2019-01-17T00:41:55.816Z,15.72
2019-01-17T00:42:56.434Z,15.77
2019-01-17T00:43:57.050Z,15.70
2019-01-17T00:44:57.625Z,15.80
2019-01-17T00:45:58.196Z,15.79
2019-01-17T00:46:58.770Z,15.77
2019-01-17T00:47:59.345Z,15.73
2019-01-17T00:48:59.969Z,15.76
2019-01-17T00:50:00.599Z,15.76
2019-01-17T00:51:01.120Z,15.75
2019-01-17T00:52:01.693Z,15.68
2019-01-17T00:53:02.266Z,15.76
2019-01-17T00:54:08.929Z,15.67
2019-01-17T00:55:04.455Z,15.76
2019-01-17T00:56:05.028Z,15.76
2019-01-17T00:57:05.600Z,15.75
2019-01-17T00:58:06.223Z,15.77
2019-01-17T00:59:06.796Z,15.67
2019-01-17T01:00:07.370Z,15.73
2019-01-17T01:01:07.943Z,15.72
2019-01-17T01:02:08.517Z,15.61
2019-01-17T01:03:09.092Z,15.62
2019-01-17T01:04:09.665Z,15.64
2019-01-17T01:05:10.238Z,15.65
2019-01-17T01:06:10.861Z,15.62
2019-01-17T01:07:11.434Z,15.65
2019-01-17T01:08:12.009Z,15.59
2019-01-17T01:09:12.583Z,15.64
2019-01-17T01:10:13.158Z,15.62
2019-01-17T01:11:13.780Z,15.61
2019-01-17T01:12:14.355Z,15.59
2019-01-17T01:13:14.928Z,15.62
2019-01-17T01:14:15.501Z,15.61
2019-01-17T01:15:16.075Z,15.59
2019-01-17T01:16:16.741Z,15.52
2019-01-17T01:17:17.367Z,15.54
2019-01-17T01:18:17.938Z,15.54
2019-01-17T01:19:18.511Z,15.58
2019-01-17T01:20:19.086Z,15.54
2019-01-17T01:21:19.655Z,15.55
2019-01-17T01:22:20.229Z,15.47
2019-01-17T01:23:20.802Z,15.51
2019-01-17T01:24:21.374Z,15.52
2019-01-17T01:25:21.946Z,15.54
2019-01-17T01:26:22.518Z,15.46
2019-01-17T01:27:23.090Z,15.43
2019-01-17T01:28:23.663Z,15.52
2019-01-17T01:29:24.237Z,15.52
2019-01-17T01:30:24.808Z,15.51
2019-01-17T01:31:25.429Z,15.51
2019-01-17T01:32:26.052Z,15.51
2019-01-17T01:33:26.625Z,15.46
2019-01-17T01:34:27.199Z,15.46
2019-01-17T01:35:27.771Z,15.49
2019-01-17T01:36:28.343Z,15.52
2019-01-17T01:37:28.916Z,15.44
2019-01-17T01:38:29.489Z,15.47
2019-01-17T01:39:30.062Z,15.43
2019-01-17T01:40:30.636Z,15.52
2019-01-17T01:41:31.209Z,15.46
2019-01-17T01:42:31.782Z,15.47
2019-01-17T01:43:32.353Z,15.49
2019-01-17T01:44:32.927Z,15.46
2019-01-17T01:45:33.498Z,15.37
2019-01-17T01:46:34.072Z,15.43
2019-01-17T01:47:34.644Z,15.42
2019-01-17T01:48:35.268Z,15.47
2019-01-17T01:49:35.844Z,15.46
2019-01-17T01:50:36.467Z,15.42
2019-01-17T01:51:37.040Z,15.46
2019-01-17T01:52:37.661Z,15.47
2019-01-17T01:53:38.235Z,15.44
2019-01-17T01:54:38.809Z,15.49
2019-01-17T01:55:39.384Z,15.52
2019-01-17T01:56:39.957Z,15.49
2019-01-17T01:57:40.529Z,15.49
2019-01-17T01:58:41.103Z,15.43
2019-01-17T01:59:41.675Z,15.49
2019-01-17T02:00:42.923Z,15.46
2019-01-17T02:01:43.466Z,15.47
2019-01-17T02:02:44.037Z,15.46
2019-01-17T02:03:44.610Z,15.47
2019-01-17T02:04:45.183Z,15.46
2019-01-17T02:05:45.755Z,15.43
2019-01-17T02:06:46.328Z,15.44
2019-01-17T02:07:46.951Z,15.51
2019-01-17T02:08:47.526Z,15.46
2019-01-17T02:09:48.099Z,15.49
2019-01-17T02:10:48.722Z,15.43
2019-01-17T02:11:49.294Z,15.42
2019-01-17T02:12:49.867Z,15.46
2019-01-17T02:13:50.440Z,15.46
2019-01-17T02:14:51.013Z,15.46
2019-01-17T02:15:51.585Z,15.46
2019-01-17T02:16:52.157Z,15.43
2019-01-17T02:17:52.730Z,15.39
2019-01-17T02:18:53.305Z,15.44
2019-01-17T02:19:53.878Z,15.43
2019-01-17T02:20:54.454Z,15.46
2019-01-17T02:21:55.028Z,15.52
2019-01-17T02:22:55.602Z,15.47
2019-01-17T02:23:56.176Z,15.47
2019-01-17T02:24:56.749Z,15.47
2019-01-17T02:25:57.322Z,15.46
2019-01-17T02:26:57.945Z,15.40
2019-01-17T02:27:58.518Z,15.46
2019-01-17T02:28:59.090Z,15.43
2019-01-17T02:29:59.849Z,15.51
2019-01-17T02:31:00.387Z,15.44
2019-01-17T02:32:01.012Z,15.57
2019-01-17T02:33:01.583Z,15.46
2019-01-17T02:34:02.155Z,15.46
2019-01-17T02:35:02.726Z,15.43
2019-01-17T02:36:03.297Z,15.47
2019-01-17T02:37:03.871Z,15.59
2019-01-17T02:38:04.441Z,15.61
2019-01-17T02:39:05.015Z,15.64
2019-01-17T02:40:05.636Z,15.62
2019-01-17T02:41:06.212Z,15.64
2019-01-17T02:42:06.785Z,15.68
2019-01-17T02:43:07.407Z,15.59
2019-01-17T02:44:07.980Z,15.58
2019-01-17T02:45:08.555Z,15.57
2019-01-17T02:46:09.129Z,15.52
2019-01-17T02:47:09.751Z,15.46
2019-01-17T02:48:10.324Z,15.46
2019-01-17T02:49:10.900Z,15.46
2019-01-17T02:50:11.473Z,15.55
2019-01-17T02:51:12.047Z,15.35
2019-01-17T02:52:12.620Z,15.31
2019-01-17T02:53:13.197Z,15.33
2019-01-17T02:54:13.809Z,15.31
2019-01-17T02:55:14.385Z,15.33
2019-01-17T02:56:14.958Z,15.25
2019-01-17T02:57:15.530Z,15.37
2019-01-17T02:58:16.153Z,15.35
2019-01-17T02:59:16.786Z,15.33
2019-01-17T03:00:17.400Z,15.39
2019-01-17T03:01:17.975Z,15.31
2019-01-17T03:02:18.549Z,15.33
2019-01-17T03:03:19.123Z,15.37
2019-01-17T03:04:19.695Z,15.33
2019-01-17T03:05:20.269Z,15.37
2019-01-17T03:06:20.840Z,15.35
2019-01-17T03:07:21.414Z,15.33
2019-01-17T03:08:21.987Z,15.39
2019-01-17T03:09:22.611Z,15.37
2019-01-17T03:10:23.183Z,15.35
2019-01-17T03:11:23.756Z,15.25
2019-01-17T03:12:24.328Z,15.29
2019-01-17T03:13:24.899Z,15.33
2019-01-17T03:14:25.477Z,15.25
2019-01-17T03:15:26.055Z,15.28
2019-01-17T03:16:26.671Z,15.33
2019-01-17T03:17:27.243Z,15.31
2019-01-17T03:18:27.907Z,15.33
2019-01-17T03:19:28.478Z,15.33
2019-01-17T03:20:29.052Z,15.36
2019-01-17T03:21:29.622Z,15.29
2019-01-17T03:22:30.194Z,15.31
2019-01-17T03:23:30.765Z,15.27
2019-01-17T03:24:31.336Z,15.28
2019-01-17T03:25:31.919Z,15.27
2019-01-17T03:26:32.526Z,15.22
2019-01-17T03:27:33.148Z,15.33
2019-01-17T03:28:33.724Z,15.25
2019-01-17T03:29:34.388Z,15.25
2019-01-17T03:30:34.959Z,15.24
2019-01-17T03:31:35.531Z,15.28
2019-01-17T03:32:36.102Z,15.15
2019-01-17T03:33:36.678Z,15.21
2019-01-17T03:34:37.292Z,15.15
2019-01-17T03:35:37.865Z,15.10
2019-01-17T03:36:38.436Z,15.19
2019-01-17T03:37:39.058Z,15.25
2019-01-17T03:38:39.635Z,15.17
2019-01-17T03:39:40.207Z,15.17
2019-01-17T03:40:40.782Z,15.19
2019-01-17T03:41:41.360Z,15.18
2019-01-17T03:42:41.974Z,15.15
2019-01-17T03:43:42.544Z,15.18
2019-01-17T03:44:43.119Z,15.15
2019-01-17T03:45:43.741Z,15.18
2019-01-17T03:46:44.312Z,15.19
2019-01-17T03:47:44.887Z,15.14
2019-01-17T03:48:45.461Z,15.19
2019-01-17T03:49:46.034Z,15.14
2019-01-17T03:50:46.606Z,15.15
2019-01-17T03:51:47.181Z,15.17
2019-01-17T03:52:47.753Z,15.19
2019-01-17T03:53:48.330Z,15.22
2019-01-17T03:54:52.819Z,15.15
2019-01-17T03:55:50.466Z,15.18
2019-01-17T03:56:51.089Z,15.24
2019-01-17T03:57:51.697Z,15.24
2019-01-17T03:58:52.277Z,15.18
2019-01-17T03:59:52.842Z,15.11
2019-01-17T04:00:53.416Z,15.15
2019-01-17T04:01:53.988Z,15.21
2019-01-17T04:02:54.712Z,15.25
2019-01-17T04:03:55.285Z,15.04
2019-01-17T04:04:55.856Z,15.17
2019-01-17T04:05:56.430Z,15.22
2019-01-17T04:06:57.001Z,15.15
2019-01-17T04:07:57.574Z,15.15
2019-01-17T04:08:58.147Z,15.19
2019-01-17T04:09:58.719Z,15.14
2019-01-17T04:10:59.293Z,15.14
2019-01-17T04:11:59.866Z,15.17
2019-01-17T04:13:00.438Z,15.21
2019-01-17T04:14:01.027Z,15.11
2019-01-17T04:15:01.632Z,15.27
2019-01-17T04:16:02.205Z,15.24
2019-01-17T04:17:02.783Z,15.17
2019-01-17T04:18:03.395Z,15.14
2019-01-17T04:19:04.022Z,15.15
2019-01-17T04:20:04.590Z,15.15
2019-01-17T04:21:05.164Z,15.15
2019-01-17T04:22:05.742Z,15.21
2019-01-17T04:23:06.309Z,15.03
2019-01-17T04:24:06.884Z,15.15
2019-01-17T04:25:07.458Z,15.22
2019-01-17T04:26:08.031Z,15.31
2019-01-17T04:27:08.647Z,15.22
2019-01-17T04:28:09.226Z,15.10
2019-01-17T04:29:09.837Z,15.15
2019-01-17T04:30:10.409Z,15.22
2019-01-17T04:31:10.980Z,15.15
2019-01-17T04:32:11.552Z,15.10
2019-01-17T04:33:12.125Z,15.09
2019-01-17T04:34:12.698Z,15.09
2019-01-17T04:35:13.270Z,15.09
2019-01-17T04:36:13.839Z,15.14
2019-01-17T04:37:14.410Z,15.14
2019-01-17T04:38:14.986Z,15.17
2019-01-17T04:39:15.555Z,15.11
2019-01-17T04:40:16.129Z,15.11
2019-01-17T04:41:16.703Z,15.09
2019-01-17T04:42:17.275Z,15.14
2019-01-17T04:43:17.848Z,15.18
2019-01-17T04:44:18.419Z,15.09
2019-01-17T04:45:18.991Z,15.19
2019-01-17T04:46:19.563Z,15.07
2019-01-17T04:47:20.136Z,15.15
2019-01-17T04:48:20.708Z,15.11
2019-01-17T04:49:21.281Z,15.14
2019-01-17T04:50:21.905Z,15.10
2019-01-17T04:51:22.528Z,15.10
2019-01-17T04:52:23.100Z,15.09
2019-01-17T04:53:23.673Z,15.00
2019-01-17T04:54:24.245Z,15.02
2019-01-17T04:55:24.818Z,15.09
2019-01-17T04:56:25.387Z,15.02
2019-01-17T04:57:25.958Z,15.11
2019-01-17T04:58:26.542Z,15.02
2019-01-17T04:59:27.146Z,15.17
2019-01-17T05:00:27.718Z,15.11
2019-01-17T05:01:28.290Z,15.15
2019-01-17T05:02:28.861Z,15.09
2019-01-17T05:03:29.484Z,15.09
2019-01-17T05:04:30.057Z,15.03
2019-01-17T05:05:30.629Z,15.04
2019-01-17T05:06:31.254Z,15.04
2019-01-17T05:07:31.826Z,15.04
2019-01-17T05:08:32.409Z,14.99
2019-01-17T05:09:33.015Z,15.02
2019-01-17T05:10:33.594Z,15.02
2019-01-17T05:11:34.161Z,15.00
2019-01-17T05:12:34.735Z,14.97
2019-01-17T05:13:35.457Z,15.09
2019-01-17T05:14:36.080Z,15.04
2019-01-17T05:15:36.652Z,15.03
2019-01-17T05:16:37.228Z,15.06
2019-01-17T05:17:37.803Z,15.00
2019-01-17T05:18:38.373Z,14.91
2019-01-17T05:19:38.946Z,14.94
2019-01-17T05:20:39.518Z,14.94
2019-01-17T05:21:40.089Z,14.94
2019-01-17T05:22:40.662Z,14.91
2019-01-17T05:23:41.284Z,14.89
2019-01-17T05:24:41.857Z,14.91
2019-01-17T05:25:42.482Z,14.94
2019-01-17T05:26:43.055Z,14.91
2019-01-17T05:27:43.667Z,14.88
2019-01-17T05:28:44.244Z,14.92
2019-01-17T05:29:44.812Z,14.92
2019-01-17T05:30:45.382Z,14.88
2019-01-17T05:31:46.004Z,14.88
2019-01-17T05:32:46.578Z,14.94
2019-01-17T05:33:47.153Z,14.91
2019-01-17T05:34:47.730Z,14.97
2019-01-17T05:35:48.297Z,14.94
2019-01-17T05:36:48.876Z,14.89
2019-01-17T05:37:49.443Z,14.92
2019-01-17T05:38:50.016Z,14.92
2019-01-17T05:39:50.591Z,14.97
2019-01-17T05:40:51.359Z,14.89
2019-01-17T05:41:51.930Z,14.92
2019-01-17T05:42:52.504Z,14.88
2019-01-17T05:43:53.078Z,14.97
2019-01-17T05:44:53.690Z,14.92
2019-01-17T05:45:54.264Z,14.99
2019-01-17T05:46:54.881Z,14.92
2019-01-17T05:47:55.457Z,15.00
2019-01-17T05:48:56.082Z,14.96
2019-01-17T05:49:56.652Z,15.06
2019-01-17T05:50:57.225Z,15.04
2019-01-17T05:51:57.799Z,15.02
2019-01-17T05:52:58.371Z,15.09
2019-01-17T05:53:58.994Z,15.15
2019-01-17T05:54:59.566Z,15.17
2019-01-17T05:56:00.189Z,15.09
2019-01-17T05:57:00.762Z,15.11
2019-01-17T05:58:01.334Z,15.10
2019-01-17T05:59:01.906Z,15.25
2019-01-17T06:00:02.477Z,15.14
2019-01-17T06:01:03.053Z,15.21
2019-01-17T06:02:03.622Z,15.14
2019-01-17T06:03:04.199Z,15.11
2019-01-17T06:04:04.764Z,15.15
2019-01-17T06:05:05.335Z,15.25
2019-01-17T06:06:05.908Z,15.11
2019-01-17T06:07:06.480Z,15.06
2019-01-17T06:08:07.050Z,15.14
2019-01-17T06:09:07.623Z,15.14
2019-01-17T06:10:08.194Z,15.17
2019-01-17T06:11:08.817Z,15.19
2019-01-17T06:12:09.389Z,15.21
2019-01-17T06:13:09.963Z,15.15
2019-01-17T06:14:10.534Z,15.19
2019-01-17T06:15:11.108Z,15.19
2019-01-17T06:16:11.832Z,15.22
2019-01-17T06:17:12.406Z,15.27
2019-01-17T06:18:12.980Z,15.22
2019-01-17T06:19:13.553Z,15.27
2019-01-17T06:20:14.129Z,15.29
2019-01-17T06:21:14.700Z,15.27
2019-01-17T06:22:15.322Z,15.14
2019-01-17T06:23:15.897Z,15.17
2019-01-17T06:24:16.471Z,15.17
2019-01-17T06:25:17.048Z,15.14
2019-01-17T06:26:17.767Z,15.14
2019-01-17T06:27:18.389Z,15.19
2019-01-17T06:28:18.961Z,15.14
2019-01-17T06:29:19.532Z,15.19
2019-01-17T06:30:20.206Z,15.10
2019-01-17T06:31:20.827Z,15.17
2019-01-17T06:32:21.400Z,15.10
2019-01-17T06:33:21.970Z,15.17
2019-01-17T06:34:22.541Z,15.19
2019-01-17T06:35:23.164Z,15.10
2019-01-17T06:36:23.737Z,15.09
2019-01-17T06:37:24.311Z,15.15
2019-01-17T06:38:24.883Z,15.09
2019-01-17T06:39:25.454Z,15.14
2019-01-17T06:40:26.028Z,15.10
2019-01-17T06:41:26.601Z,15.07
2019-01-17T06:42:27.175Z,15.15
2019-01-17T06:43:27.746Z,15.10
2019-01-17T06:44:28.320Z,15.11
2019-01-17T06:45:28.892Z,15.14
2019-01-17T06:46:29.463Z,15.10
2019-01-17T06:47:30.037Z,15.09
2019-01-17T06:48:30.610Z,15.14
2019-01-17T06:49:31.235Z,15.11
2019-01-17T06:50:31.807Z,15.14
2019-01-17T06:51:32.432Z,15.11
2019-01-17T06:52:33.007Z,15.14
2019-01-17T06:53:33.577Z,15.09
2019-01-17T06:54:34.148Z,15.14
2019-01-17T06:55:34.739Z,15.10
2019-01-17T06:56:35.292Z,15.17
2019-01-17T06:57:35.864Z,15.14
2019-01-17T06:58:36.439Z,15.15
2019-01-17T06:59:37.010Z,15.11
2019-01-17T07:00:37.582Z,15.15
2019-01-17T07:01:38.205Z,15.14
2019-01-17T07:02:38.779Z,15.14
2019-01-17T07:03:39.349Z,15.09
2019-01-17T07:04:39.923Z,14.99
2019-01-17T07:05:40.500Z,14.96
2019-01-17T07:06:41.071Z,15.02
2019-01-17T07:07:41.643Z,15.04
2019-01-17T07:08:42.216Z,14.94
2019-01-17T07:09:42.790Z,14.96
2019-01-17T07:10:43.411Z,14.92
2019-01-17T07:11:43.984Z,14.85
2019-01-17T07:12:46.007Z,14.97
2019-01-17T07:13:45.165Z,14.89
2019-01-17T07:14:45.738Z,14.97
2019-01-17T07:15:46.312Z,14.91
2019-01-17T07:16:46.885Z,14.92
2019-01-17T07:17:47.459Z,14.91
2019-01-17T07:18:48.030Z,14.85
2019-01-17T07:19:48.604Z,14.91
2019-01-17T07:20:49.176Z,14.94
2019-01-17T07:21:49.749Z,14.88
2019-01-17T07:22:50.320Z,14.97
2019-01-17T07:23:50.895Z,14.96
2019-01-17T07:24:51.667Z,14.91
2019-01-17T07:25:52.242Z,14.91
2019-01-17T07:26:52.865Z,14.96
2019-01-17T07:27:53.440Z,14.86
2019-01-17T07:28:54.010Z,14.89
2019-01-17T07:29:54.583Z,14.85
2019-01-17T07:30:55.154Z,14.85
2019-01-17T07:31:55.726Z,14.97
2019-01-17T07:32:56.300Z,14.94
2019-01-17T07:33:56.871Z,14.85
2019-01-17T07:34:57.444Z,14.91
2019-01-17T07:35:58.018Z,14.81
2019-01-17T07:36:58.633Z,14.77
2019-01-17T07:37:59.164Z,14.85
2019-01-17T07:38:59.777Z,14.82
2019-01-17T07:40:00.350Z,14.85
2019-01-17T07:41:00.923Z,14.79
2019-01-17T07:42:01.544Z,14.79
2019-01-17T07:43:02.167Z,14.73
2019-01-17T07:44:02.741Z,14.81
2019-01-17T07:45:03.362Z,14.79
2019-01-17T07:46:03.937Z,14.78
2019-01-17T07:47:04.509Z,14.78
2019-01-17T07:48:05.082Z,14.82
2019-01-17T07:49:05.655Z,14.78
2019-01-17T07:50:06.228Z,14.81
2019-01-17T07:51:06.800Z,14.81
2019-01-17T07:52:07.373Z,14.81
2019-01-17T07:53:07.947Z,14.84
2019-01-17T07:54:08.519Z,14.79
2019-01-17T07:55:09.091Z,14.82
2019-01-17T07:56:09.661Z,14.82
2019-01-17T07:57:10.234Z,14.79
2019-01-17T07:58:10.806Z,14.81
2019-01-17T07:59:11.377Z,14.79
2019-01-17T08:00:11.998Z,14.84
2019-01-17T08:01:15.045Z,14.81
2019-01-17T08:02:13.282Z,14.77
2019-01-17T08:03:13.854Z,14.82
2019-01-17T08:04:14.425Z,14.77
2019-01-17T08:05:14.997Z,14.73
2019-01-17T08:06:15.568Z,14.81
2019-01-17T08:07:16.140Z,14.81
2019-01-17T08:08:16.717Z,14.79
2019-01-17T08:09:17.287Z,14.70
2019-01-17T08:10:17.859Z,14.79
2019-01-17T08:11:18.431Z,14.69
2019-01-17T08:12:19.003Z,14.77
2019-01-17T08:13:19.574Z,14.84
2019-01-17T08:14:20.151Z,14.78
2019-01-17T08:15:20.724Z,14.69
2019-01-17T08:16:21.347Z,14.73
2019-01-17T08:17:21.920Z,14.85
2019-01-17T08:18:22.493Z,14.82
2019-01-17T08:19:23.066Z,14.81
2019-01-17T08:20:23.638Z,14.79
2019-01-17T08:21:24.210Z,14.82
2019-01-17T08:22:24.783Z,14.72
2019-01-17T08:23:25.354Z,14.77
2019-01-17T08:24:25.925Z,14.68
2019-01-17T08:25:26.496Z,14.63
2019-01-17T08:26:27.069Z,14.62
2019-01-17T08:27:27.641Z,14.65
2019-01-17T08:28:28.213Z,14.77
2019-01-17T08:29:28.785Z,14.78
2019-01-17T08:30:29.358Z,14.81
2019-01-17T08:31:29.932Z,14.81
2019-01-17T08:32:30.505Z,14.72
2019-01-17T08:33:31.079Z,14.68
2019-01-17T08:34:31.651Z,14.63
2019-01-17T08:35:32.222Z,14.59
2019-01-17T08:36:32.795Z,14.60
2019-01-17T08:37:33.366Z,14.60
2019-01-17T08:38:33.987Z,14.55
2019-01-17T08:39:34.563Z,14.51
2019-01-17T08:40:35.176Z,14.45
2019-01-17T08:41:35.747Z,14.48
2019-01-17T08:42:36.319Z,14.47
2019-01-17T08:43:36.892Z,14.47
2019-01-17T08:44:37.464Z,14.47
2019-01-17T08:45:38.036Z,14.48
2019-01-17T08:46:38.609Z,14.50
2019-01-17T08:47:39.184Z,14.54
2019-01-17T08:48:39.758Z,14.55
2019-01-17T08:49:40.330Z,14.63
2019-01-17T08:50:40.907Z,14.51
2019-01-17T08:51:41.475Z,14.54
2019-01-17T08:52:42.049Z,14.53
2019-01-17T08:53:42.622Z,14.55
2019-01-17T08:54:43.247Z,14.44
2019-01-17T08:55:43.817Z,14.45
2019-01-17T08:56:44.390Z,14.51
2019-01-17T08:57:44.964Z,14.44
2019-01-17T08:58:45.537Z,14.40
2019-01-17T08:59:46.108Z,14.37
2019-01-17T09:00:46.679Z,14.53
2019-01-17T09:01:47.253Z,14.48
2019-01-17T09:02:47.830Z,14.47
2019-01-17T09:03:48.489Z,14.43
2019-01-17T09:04:49.061Z,14.40
2019-01-17T09:05:49.631Z,14.37
2019-01-17T09:06:50.255Z,14.40
2019-01-17T09:07:50.827Z,14.40
2019-01-17T09:08:51.401Z,14.28
2019-01-17T09:09:51.971Z,14.33
2019-01-17T09:10:52.546Z,14.30
2019-01-17T09:11:53.115Z,14.29
2019-01-17T09:12:53.689Z,14.35
2019-01-17T09:13:54.312Z,14.36
2019-01-17T09:14:54.884Z,14.28
2019-01-17T09:15:55.508Z,14.33
2019-01-17T09:16:56.078Z,14.32
2019-01-17T09:17:56.652Z,14.41
2019-01-17T09:18:57.226Z,14.28
2019-01-17T09:19:57.798Z,14.32
2019-01-17T09:20:58.419Z,14.40
2019-01-17T09:21:58.989Z,14.30
2019-01-17T09:22:59.625Z,14.25
2019-01-17T09:24:00.229Z,14.25
2019-01-17T09:25:00.803Z,14.30
2019-01-17T09:26:07.332Z,14.26
2019-01-17T09:27:02.941Z,14.37
2019-01-17T09:28:03.516Z,14.35
2019-01-17T09:29:04.085Z,14.29
2019-01-17T09:30:04.665Z,14.28
2019-01-17T09:31:05.230Z,14.32
2019-01-17T09:32:05.803Z,14.30
2019-01-17T09:33:06.376Z,14.32
2019-01-17T09:34:06.998Z,14.26
2019-01-17T09:35:07.570Z,14.29
2019-01-17T09:36:08.144Z,14.30
2019-01-17T09:37:08.716Z,14.29
2019-01-17T09:38:09.288Z,14.37
2019-01-17T09:39:09.861Z,14.28
2019-01-17T09:40:10.482Z,14.40
2019-01-17T09:41:11.105Z,14.29
2019-01-17T09:42:11.678Z,14.29
2019-01-17T09:43:12.249Z,14.37
2019-01-17T09:44:12.827Z,14.25
2019-01-17T09:45:13.397Z,14.25
2019-01-17T09:46:13.971Z,14.28
2019-01-17T09:47:14.542Z,14.33
2019-01-17T09:48:15.115Z,14.32
2019-01-17T09:49:15.688Z,14.40
2019-01-17T09:50:16.261Z,14.28
2019-01-17T09:51:16.832Z,14.26
2019-01-17T09:52:17.403Z,14.33
2019-01-17T09:53:18.025Z,14.25
2019-01-17T09:54:18.601Z,14.26
2019-01-17T09:55:19.173Z,14.26
2019-01-17T09:56:19.795Z,14.44
2019-01-17T09:57:20.370Z,14.29
2019-01-17T09:58:20.939Z,14.36
2019-01-17T09:59:21.514Z,14.43
2019-01-17T10:00:22.091Z,14.41
2019-01-17T10:01:22.654Z,14.41
2019-01-17T10:02:23.224Z,14.37
2019-01-17T10:03:23.796Z,14.36
2019-01-17T10:04:26.544Z,14.26
2019-01-17T10:05:25.931Z,14.30
2019-01-17T10:06:26.503Z,14.40
2019-01-17T10:07:27.086Z,14.41
2019-01-17T10:08:27.697Z,14.41
2019-01-17T10:09:28.318Z,14.37
2019-01-17T10:10:28.893Z,14.43
2019-01-17T10:11:29.464Z,14.50
2019-01-17T10:12:30.037Z,14.50
2019-01-17T10:13:32.112Z,14.44
2019-01-17T10:14:32.175Z,14.37
2019-01-17T10:15:32.747Z,14.37
2019-01-17T10:16:33.319Z,14.37
2019-01-17T10:17:33.893Z,14.44
2019-01-17T10:18:34.465Z,14.51
2019-01-17T10:19:35.089Z,14.51
2019-01-17T10:20:35.661Z,14.45
2019-01-17T10:21:36.240Z,14.36
2019-01-17T10:22:36.804Z,14.51
2019-01-17T10:23:37.376Z,14.35
2019-01-17T10:24:37.948Z,14.43
2019-01-17T10:25:38.520Z,14.36
2019-01-17T10:26:39.093Z,14.50
2019-01-17T10:27:39.664Z,14.50
2019-01-17T10:28:40.237Z,14.45
2019-01-17T10:29:40.857Z,14.50
2019-01-17T10:30:41.430Z,14.58
2019-01-17T10:31:42.003Z,14.44
2019-01-17T10:32:42.575Z,14.48
2019-01-17T10:33:43.200Z,14.58
2019-01-17T10:34:43.769Z,14.54
2019-01-17T10:35:44.340Z,14.51
2019-01-17T10:36:44.911Z,14.53
2019-01-17T10:37:45.480Z,14.54
2019-01-17T10:38:46.053Z,14.55
2019-01-17T10:39:46.626Z,14.55
2019-01-17T10:40:47.196Z,14.47
2019-01-17T10:41:47.770Z,14.54
2019-01-17T10:42:48.342Z,14.47
2019-01-17T10:43:48.910Z,14.50
2019-01-17T10:44:49.482Z,14.45
2019-01-17T10:45:50.053Z,14.53
2019-01-17T10:46:50.625Z,14.47
2019-01-17T10:47:51.245Z,14.41
2019-01-17T10:48:51.819Z,14.50
2019-01-17T10:49:52.392Z,14.36
2019-01-17T10:50:52.966Z,14.41
2019-01-17T10:51:53.588Z,14.47
2019-01-17T10:52:54.210Z,14.50
2019-01-17T10:53:54.784Z,14.44
2019-01-17T10:54:55.356Z,14.45
2019-01-17T10:55:55.930Z,14.44
2019-01-17T10:56:56.502Z,14.50
2019-01-17T10:57:57.076Z,14.45
2019-01-17T10:58:57.648Z,14.35
2019-01-17T10:59:58.221Z,14.37
2019-01-17T11:00:58.791Z,14.47
2019-01-17T11:01:59.364Z,14.53
2019-01-17T11:02:59.935Z,14.47
2019-01-17T11:04:00.509Z,14.50
2019-01-17T11:05:01.081Z,14.54
2019-01-17T11:06:01.652Z,14.40
2019-01-17T11:07:02.274Z,14.63
2019-01-17T11:08:02.847Z,14.59
2019-01-17T11:09:03.468Z,14.55
2019-01-17T11:10:04.040Z,14.68
2019-01-17T11:11:04.613Z,14.73
2019-01-17T11:12:05.186Z,14.78
2019-01-17T11:13:05.802Z,14.77
2019-01-17T11:14:06.372Z,14.77
2019-01-17T11:15:06.943Z,14.77
2019-01-17T11:16:07.514Z,14.86
2019-01-17T11:17:08.085Z,14.88
2019-01-17T11:18:08.656Z,14.85
2019-01-17T11:19:09.228Z,14.88
2019-01-17T11:20:09.802Z,14.92
2019-01-17T11:21:10.375Z,14.96
2019-01-17T11:22:10.997Z,14.88
2019-01-17T11:23:11.568Z,14.89
2019-01-17T11:24:12.144Z,14.89
2019-01-17T11:25:12.715Z,14.85
2019-01-17T11:26:13.287Z,14.85
2019-01-17T11:27:13.860Z,14.92
2019-01-17T11:28:14.477Z,14.88
2019-01-17T11:29:15.049Z,14.88
2019-01-17T11:30:15.623Z,14.84
2019-01-17T11:31:16.193Z,14.92
2019-01-17T11:32:16.766Z,14.86
2019-01-17T11:33:17.338Z,14.85
2019-01-17T11:34:17.911Z,14.85
2019-01-17T11:35:18.483Z,14.82
2019-01-17T11:36:19.057Z,14.81
2019-01-17T11:37:19.632Z,14.79
2019-01-17T11:38:20.255Z,14.81
2019-01-17T11:39:20.828Z,14.81
2019-01-17T11:40:21.400Z,14.73
2019-01-17T11:41:21.971Z,14.73
2019-01-17T11:42:22.543Z,14.88
2019-01-17T11:43:23.116Z,14.79
2019-01-17T11:44:23.688Z,14.81
2019-01-17T11:45:24.263Z,14.77
2019-01-17T11:46:24.833Z,14.72
2019-01-17T11:47:25.407Z,14.70
2019-01-17T11:48:25.980Z,14.68
2019-01-17T11:49:26.557Z,14.66
2019-01-17T11:50:27.129Z,14.68
2019-01-17T11:51:27.701Z,14.69
2019-01-17T11:52:28.275Z,14.70
2019-01-17T11:53:28.847Z,14.70
2019-01-17T11:54:29.420Z,14.78
2019-01-17T11:55:29.992Z,14.84
2019-01-17T11:56:30.565Z,14.78
2019-01-17T11:57:31.178Z,14.81
2019-01-17T11:58:31.750Z,14.77
2019-01-17T11:59:32.371Z,14.68
2019-01-17T12:00:32.993Z,14.79
2019-01-17T12:01:33.566Z,14.78
2019-01-17T12:02:39.143Z,14.82
2019-01-17T12:03:35.704Z,14.82
2019-01-17T12:04:36.282Z,14.79
2019-01-17T12:05:36.848Z,14.72
2019-01-17T12:06:37.424Z,14.85
2019-01-17T12:07:38.047Z,14.86
2019-01-17T12:08:38.619Z,14.79
2019-01-17T12:09:39.191Z,14.82
2019-01-17T12:10:39.764Z,14.89
2019-01-17T12:11:40.336Z,14.79
2019-01-17T12:12:40.909Z,14.82
2019-01-17T12:13:41.481Z,14.84
2019-01-17T12:14:47.055Z,14.85
2019-01-17T12:15:47.830Z,14.81
2019-01-17T12:16:48.405Z,14.91
2019-01-17T12:17:49.022Z,14.82
2019-01-17T12:18:49.596Z,14.91
2019-01-17T12:19:50.171Z,14.86
2019-01-17T12:20:50.741Z,14.88
2019-01-17T12:21:51.314Z,14.84
2019-01-17T12:22:51.886Z,14.82
2019-01-17T12:23:52.459Z,14.84
2019-01-17T12:24:53.033Z,14.82
2019-01-17T12:25:53.603Z,14.81
2019-01-17T12:26:54.174Z,14.82
2019-01-17T12:27:54.748Z,14.73
2019-01-17T12:28:55.320Z,14.81
2019-01-17T12:29:55.891Z,14.78
2019-01-17T12:30:56.662Z,14.69
2019-01-17T12:31:57.239Z,14.81
2019-01-17T12:32:57.909Z,14.81
2019-01-17T12:33:58.574Z,14.82
2019-01-17T12:34:59.149Z,14.70
2019-01-17T12:35:59.719Z,14.86
2019-01-17T12:37:00.294Z,14.82
2019-01-17T12:38:00.864Z,14.82
2019-01-17T12:39:01.438Z,14.88
2019-01-17T12:40:02.009Z,14.88
2019-01-17T12:41:02.584Z,14.85
2019-01-17T12:42:03.157Z,14.82
2019-01-17T12:43:03.728Z,14.82
2019-01-17T12:44:04.300Z,14.82
2019-01-17T12:45:04.873Z,14.82
2019-01-17T12:46:05.443Z,14.73
2019-01-17T12:47:06.016Z,14.78
2019-01-17T12:48:06.589Z,14.79
2019-01-17T12:49:07.317Z,14.77
2019-01-17T12:50:07.932Z,14.78
2019-01-17T12:51:08.507Z,14.82
2019-01-17T12:52:09.129Z,14.78
2019-01-17T12:53:09.700Z,14.79
2019-01-17T12:54:10.272Z,14.78
2019-01-17T12:55:10.844Z,14.78
2019-01-17T12:56:11.417Z,14.82
2019-01-17T12:57:11.990Z,14.79
2019-01-17T12:58:12.562Z,14.81
2019-01-17T12:59:13.134Z,14.73
2019-01-17T13:00:13.706Z,14.77